Portada
METAR-TAF:

METAR-TAF

Aeropuertos :

Aeropuerto Internacional Hato

Curazao, Antillas Neerlandesas

latitud: 12-12N, longitud: 068-58W, altitud: 9 m

Observación

El informe se hizo hace 36 minutos, a las 12:00 UTC
Viento 13 kt del este
Temperatura 28°C
Humedad 74%
Presión 1015 hPa
Visibilidad 10 km o más
Escasas nubes a una altura de 1900 ft

METAR: TNCC 181200Z 10013KT 9999 FEW019 28/23 Q1015 NOSIG

Hora: 08:36 (12:36 UTC)

Pronóstico

El informe se hizo hace 2 horas y 36 minutos, a las 10:00 UTC
Pronóstico válido del 18 a las 12 UTC al 19 a las 12 UTC
Viento 15 kt del este con ráfagas de 26 kt
Visibilidad 10 km o más
Nubes dispersas a una altura de 2000 ft

TAF: TNCC 181000Z 1812/1912 10015G26KT 9999 SCT020

Observaciones y pronósticos meteorológicos de más de 4000 aeropuertos (mensajes METAR y TAF).

Los puntos amarillos y rojos representan las estaciones disponibles.

Ponga el ratón en el punto deseado para ver el nombre de la estación.

Haga clic para ver las observaciones y los pronósticos meteorológicos.

Para cambiar el mapa : haga clic en los botones verdes con una cruz de color negro para hacer un zoom, en el botón verde con un guión para alejar o en las flechas verdes para mapas adyacentes.


METAR-TAF: